New Bedford, Massachusetts
Current Conditions -  °F | °C
As of 12:53 PM on Tuesday 21 Oct 2014 (Local Time) from KEWB Reporting Station
Overcast Overcast  
Wind Chill: 61°   Ceiling: 1800
Heat Index: 61°   Visibility: 10mi
Dew Point: 54°   Wind: 10mph
Humidity: 78%   Direction: 160°SSE
Pressure: 29.92"   Gusts: NA
Location:  41.64°N, 70.93°W
Report Text: KEWB 211653Z 16009KT 10SM SCT013 BKN018 OVC026 16/12 A2992 RMK AO2 SLP131 T01610122
Loading
Personal Weather Stations






























Interactive Weather Map
Tropical Storm Tracking
New forecast layout! Learn more

10-Day Weather Forecast

Advertisements
Track Severe Weather on mobile